Alluitsup Paa Heliport


Codes: BGAP/LLU
Name: Alluitsup Paa Heliport
City: Alluitsup Paa
Country: Greenland
Elevation: 54 ft.
Wikipedia:

Photos at Alluitsup Paa Heliport


   Photos courtesy of SpottingLog. You can add your own sightings and photos by signing up for a free trial today.



No photos found.

Weather at Alluitsup Paa Heliport


Time (UTC)DescriptionTempratureWindCloud coverageVisibilityPressureHumidity
17-Jun-2024 06:00Overcast Clouds7°C11 mph, E100%10000m1002hPa78%
17-Jun-2024 09:00Overcast Clouds6°C9 mph, SE100%10000m1002hPa78%
17-Jun-2024 12:00Light Rain5°C7 mph, SE100%10000m1005hPa84%
17-Jun-2024 15:00Light Rain2°C11 mph, SE100%345m1011hPa99%
17-Jun-2024 18:00Moderate Rain2°C4 mph, S100%454m1014hPa99%
17-Jun-2024 21:00Light Rain1°C0 mph, S100%861m1016hPa99%
18-Jun-2024 00:00Light Rain2°C2 mph, W100%1306m1017hPa99%
18-Jun-2024 03:00Overcast Clouds3°C4 mph, N99%10000m1017hPa86%
18-Jun-2024 06:00Broken Clouds3°C4 mph, N76%10000m1016hPa86%
18-Jun-2024 09:00Scattered Clouds3°C2 mph, NW26%10000m1014hPa82%
18-Jun-2024 12:00Scattered Clouds3°C4 mph, SW35%10000m1013hPa84%
18-Jun-2024 15:00Overcast Clouds2°C4 mph, S96%4155m1012hPa87%
18-Jun-2024 18:00Overcast Clouds2°C4 mph, S92%1346m1010hPa87%
18-Jun-2024 21:00Overcast Clouds2°C2 mph, E89%6644m1010hPa85%
19-Jun-2024 00:00Overcast Clouds4°C2 mph, W93%10000m1009hPa71%
19-Jun-2024 03:00Broken Clouds4°C4 mph, NW83%10000m1007hPa78%
19-Jun-2024 06:00Overcast Clouds2°C4 mph, W88%10000m1006hPa86%
19-Jun-2024 09:00Broken Clouds4°C2 mph, N73%10000m1006hPa78%
19-Jun-2024 12:00Broken Clouds4°C9 mph, W80%10000m1007hPa80%
19-Jun-2024 15:00Overcast Clouds4°C11 mph, NW85%10000m1008hPa81%
19-Jun-2024 18:00Overcast Clouds5°C9 mph, NW92%10000m1009hPa78%
19-Jun-2024 21:00Overcast Clouds5°C4 mph, NW88%10000m1010hPa81%
20-Jun-2024 00:00Broken Clouds4°C4 mph, W77%10000m1011hPa86%
20-Jun-2024 03:00Overcast Clouds3°C2 mph, SW100%10000m1010hPa91%
20-Jun-2024 06:00Light Rain3°C4 mph, SE100%10000m1009hPa93%
20-Jun-2024 09:00Overcast Clouds3°C2 mph, SE100%10000m1009hPa91%
20-Jun-2024 12:00Overcast Clouds3°C4 mph, S100%10000m1007hPa89%
20-Jun-2024 15:00Overcast Clouds2°C9 mph, S100%4828m1005hPa93%
20-Jun-2024 18:00Light Rain2°C7 mph, SE100%1745m1002hPa95%
20-Jun-2024 21:00Moderate Rain4°C7 mph, E100%9722m999hPa89%
21-Jun-2024 00:00Light Rain4°C4 mph, SE100%10000m998hPa81%
21-Jun-2024 03:00Light Rain4°C7 mph, E100%10000m999hPa79%
21-Jun-2024 06:00Light Rain4°C4 mph, NE100%10000m998hPa80%
21-Jun-2024 09:00Light Rain4°C2 mph, SE100%10000m999hPa78%
21-Jun-2024 12:00Light Rain3°C9 mph, W100%10000m999hPa88%
21-Jun-2024 15:00Light Rain2°C9 mph, NW100%130m1001hPa98%
21-Jun-2024 18:00Snow1°C4 mph, NE100%55m1001hPa99%
21-Jun-2024 21:00Snow1°C7 mph, E100%59m1001hPa100%
22-Jun-2024 00:00Moderate Rain1°C7 mph, NE100%68m1000hPa99%
22-Jun-2024 03:00Light Rain2°C4 mph, E100%114m1000hPa99%